Terminal Aerodrome Forecast
Issued by NWS

Home | Current Version | Previous Version | Text Only | Print | Product List | Glossary On
Versions: 1 2 3 4 5 6 7 8 9 10 11 12 13 14 15 16 17 18 19 20 21 22 23 24
000
FTUS43 KGLD 272124 AAA
TAFMCK
TAF AMD
KMCK 272124Z 2721/2818 16014G20KT P6SM OVC050
     FM280300 15008KT P6SM OVC025
     FM281100 15009KT 1SM -SN OVC010=

USA.gov is the U.S. government's official web portal to all federal, state and local government web resources and services.